METAR UND TAF INFORMATION
EDNY 252020Z VRB02KT 9999 FEW050 02/M01 Q1024

 FLUGHAFENKARTE

 RUNWAY INFORMATION
Runway 06 Runway length 7729 ft Runway width 148 ft
Runway elevation 1334 ft Runway displaced threshold 885 ft Runway heading 60
Runway 24 Runway length 7729 ft Runway width 148 ft
Runway elevation 1367 ft Runway displaced threshold 675 ft Runway heading 240

 AIRPORT FREQUENCIES
Type APP Name ZURICH ARR Frequency 119.925 MHZ
Type ATIS Name ATIS Frequency 129.6 MHZ
Type INFO Name INFO Frequency 122.5 MHZ
Type RDO Name MUNCHEN IN Frequency 126.95 MHZ
Type TWR Name TWR Frequency 120.075 MHZ

 AIRPORT NEAR NAVIGATION AIDS
Type NDB Name Friedrichshafen Frequency 473 KHZ
Type DME Name Friedrichshafen Frequency 112600 KHZ